createdAt,value
2022-12-31T00:01:15.108Z,61.99
2022-12-31T00:06:36.189Z,61.98
2022-12-31T00:11:38.608Z,62.08
2022-12-31T00:16:41.985Z,61.95
2022-12-31T00:21:43.890Z,61.92
2022-12-31T00:26:45.427Z,61.77
2022-12-31T00:31:46.980Z,61.79
2022-12-31T00:36:48.543Z,61.49
2022-12-31T00:41:50.184Z,61.63
2022-12-31T00:46:51.758Z,61.46
2022-12-31T00:51:53.304Z,61.31
2022-12-31T00:56:54.853Z,61.32
2022-12-31T01:01:56.512Z,61.38
2022-12-31T01:06:58.136Z,61.13
2022-12-31T01:11:59.765Z,61.42
2022-12-31T01:17:01.322Z,61.29
2022-12-31T01:22:02.899Z,61.05
2022-12-31T01:27:04.458Z,61.32
2022-12-31T01:32:06.045Z,61.32
2022-12-31T01:37:07.590Z,61.28
2022-12-31T01:42:11.891Z,61.46
2022-12-31T01:47:17.893Z,62.08
2022-12-31T01:52:27.750Z,61.68
2022-12-31T01:57:29.981Z,62.16
2022-12-31T02:02:31.746Z,62.21
2022-12-31T02:07:33.406Z,62.01
2022-12-31T02:12:35.053Z,62.05
2022-12-31T02:18:19.909Z,62.06
2022-12-31T02:23:55.947Z,61.74
2022-12-31T02:29:09.650Z,61.85
2022-12-31T02:34:16.917Z,62.11
2022-12-31T02:39:18.591Z,61.63
2022-12-31T02:44:26.342Z,61.95
2022-12-31T02:49:43.111Z,61.82
2022-12-31T02:55:20.553Z,61.55
2022-12-31T03:00:41.294Z,61.75
2022-12-31T03:05:44.639Z,61.61
2022-12-31T03:10:46.261Z,61.63
2022-12-31T03:15:47.899Z,61.58
2022-12-31T03:21:09.768Z,61.41
2022-12-31T03:26:12.152Z,61.59
2022-12-31T03:31:14.102Z,61.53
2022-12-31T03:36:15.712Z,61.53
2022-12-31T03:41:17.328Z,60.99
2022-12-31T03:46:18.997Z,61.43
2022-12-31T03:51:20.552Z,61.38
2022-12-31T03:56:22.154Z,61.51
2022-12-31T04:01:24.492Z,61.50
2022-12-31T04:06:26.900Z,61.44
2022-12-31T04:11:28.404Z,61.10
2022-12-31T04:16:30.745Z,61.26
2022-12-31T04:21:35.145Z,61.27
2022-12-31T04:26:37.948Z,61.33
2022-12-31T04:31:39.470Z,61.07
2022-12-31T04:36:41.069Z,61.81
2022-12-31T04:41:42.632Z,61.25
2022-12-31T04:46:44.208Z,61.27
2022-12-31T04:51:45.720Z,61.27
2022-12-31T04:56:47.235Z,61.17
2022-12-31T05:01:49.030Z,61.19
2022-12-31T05:06:50.641Z,61.24
2022-12-31T05:11:52.141Z,61.39
2022-12-31T05:16:53.901Z,61.25
2022-12-31T05:22:34.004Z,61.18
2022-12-31T05:27:37.768Z,61.44
2022-12-31T05:32:39.640Z,61.20
2022-12-31T05:37:41.321Z,61.44
2022-12-31T05:42:42.932Z,61.19
2022-12-31T05:47:45.091Z,61.08
2022-12-31T05:52:47.764Z,60.82
2022-12-31T05:57:49.558Z,60.81
2022-12-31T06:02:51.185Z,61.00
2022-12-31T06:07:52.953Z,60.74
2022-12-31T06:12:54.462Z,61.14
2022-12-31T06:17:56.063Z,61.25
2022-12-31T06:22:57.613Z,60.96
2022-12-31T06:27:59.174Z,60.77
2022-12-31T06:33:00.703Z,60.71
2022-12-31T06:38:02.644Z,60.86
2022-12-31T06:43:04.184Z,61.09
2022-12-31T06:48:06.260Z,61.01
2022-12-31T06:53:08.113Z,60.95
2022-12-31T06:58:13.496Z,60.67
2022-12-31T07:03:43.064Z,61.15
2022-12-31T07:09:20.459Z,61.06
2022-12-31T07:14:45.176Z,61.22
2022-12-31T07:20:00.734Z,61.30
2022-12-31T07:25:03.488Z,61.57
2022-12-31T07:30:15.879Z,62.03
2022-12-31T07:35:34.752Z,61.84
2022-12-31T07:41:09.299Z,62.26
2022-12-31T07:46:27.077Z,62.13
2022-12-31T07:51:28.916Z,62.11
2022-12-31T07:56:31.064Z,61.80
2022-12-31T08:01:36.426Z,62.09
2022-12-31T08:07:02.493Z,61.75
2022-12-31T08:12:04.272Z,61.83
2022-12-31T08:17:06.108Z,62.07
2022-12-31T08:22:13.529Z,61.72
2022-12-31T08:27:27.595Z,61.74
2022-12-31T08:32:37.657Z,61.41
2022-12-31T08:37:44.059Z,61.38
2022-12-31T08:43:06.818Z,61.35
2022-12-31T08:48:27.404Z,61.11
2022-12-31T08:53:29.238Z,61.09
2022-12-31T08:58:57.549Z,60.94
2022-12-31T09:04:25.276Z,60.87
2022-12-31T09:09:37.545Z,60.63
2022-12-31T09:14:54.865Z,60.52
2022-12-31T09:19:56.731Z,60.58
2022-12-31T09:24:58.595Z,60.29
2022-12-31T09:30:11.495Z,59.52
2022-12-31T09:35:18.854Z,59.60
2022-12-31T09:40:23.632Z,59.80
2022-12-31T09:46:08.941Z,59.67
2022-12-31T09:51:20.365Z,59.52
2022-12-31T09:56:32.827Z,59.40
2022-12-31T10:02:10.167Z,59.34
2022-12-31T10:07:57.608Z,59.09
2022-12-31T10:13:44.317Z,58.66
2022-12-31T10:19:27.202Z,58.63
2022-12-31T10:25:13.727Z,58.54
2022-12-31T10:30:18.765Z,58.30
2022-12-31T10:35:40.429Z,57.83
2022-12-31T10:41:20.567Z,57.89
2022-12-31T10:46:42.038Z,57.62
2022-12-31T10:51:53.919Z,57.62
2022-12-31T10:57:10.780Z,57.47
2022-12-31T11:02:40.416Z,57.21
2022-12-31T11:08:02.530Z,57.08
2022-12-31T11:13:32.272Z,57.23
2022-12-31T11:18:48.076Z,56.71
2022-12-31T11:24:14.933Z,56.43
2022-12-31T11:29:37.373Z,56.40
2022-12-31T11:34:48.131Z,56.27
2022-12-31T11:40:22.113Z,55.99
2022-12-31T11:46:10.127Z,56.00
2022-12-31T11:51:33.546Z,55.43
2022-12-31T11:56:40.421Z,55.15
2022-12-31T12:02:04.467Z,55.03
2022-12-31T12:07:14.474Z,55.00
2022-12-31T12:12:16.517Z,54.96
2022-12-31T12:17:31.775Z,54.72
2022-12-31T12:22:33.560Z,54.20
2022-12-31T12:27:36.460Z,54.20
2022-12-31T12:32:38.383Z,54.16
2022-12-31T12:37:39.975Z,54.11
2022-12-31T12:42:51.393Z,53.71
2022-12-31T12:47:59.940Z,53.46
2022-12-31T12:53:08.112Z,53.49
2022-12-31T12:58:37.611Z,53.48
2022-12-31T13:10:11.490Z,53.35
2022-12-31T13:15:18.897Z,52.96
2022-12-31T13:20:35.463Z,52.99
2022-12-31T13:25:58.722Z,52.93
2022-12-31T13:31:07.181Z,52.63
2022-12-31T13:36:17.321Z,53.06
2022-12-31T13:41:21.905Z,53.02
2022-12-31T13:46:48.912Z,53.08
2022-12-31T13:51:58.179Z,52.83
2022-12-31T13:57:05.908Z,52.77
2022-12-31T14:02:27.038Z,52.59
2022-12-31T14:07:41.888Z,52.27
2022-12-31T14:12:56.558Z,52.28
2022-12-31T14:18:36.135Z,52.10
2022-12-31T14:24:00.314Z,51.76
2022-12-31T14:29:11.084Z,51.86
2022-12-31T14:34:25.652Z,51.59
2022-12-31T14:39:45.603Z,51.42
2022-12-31T14:45:13.889Z,51.50
2022-12-31T14:50:17.189Z,51.37
2022-12-31T14:55:39.536Z,51.36
2022-12-31T15:00:56.120Z,51.25
2022-12-31T15:06:22.948Z,51.38
2022-12-31T15:11:50.175Z,51.26
2022-12-31T15:17:14.230Z,51.37
2022-12-31T15:22:46.774Z,51.30
2022-12-31T15:27:48.840Z,51.16
2022-12-31T15:32:50.553Z,51.11
2022-12-31T15:38:18.210Z,50.88
2022-12-31T15:43:39.772Z,50.94
2022-12-31T15:48:52.888Z,50.97
2022-12-31T15:53:58.016Z,51.02
2022-12-31T15:59:03.678Z,50.90
2022-12-31T16:04:17.259Z,51.17
2022-12-31T16:09:23.447Z,51.01
2022-12-31T16:14:33.228Z,50.95
2022-12-31T16:19:41.869Z,50.85
2022-12-31T16:25:10.864Z,51.04
2022-12-31T16:30:18.476Z,50.93
2022-12-31T16:35:24.583Z,51.16
2022-12-31T16:40:26.132Z,51.10
2022-12-31T16:45:32.440Z,51.21
2022-12-31T16:50:34.908Z,51.45
2022-12-31T16:55:36.546Z,51.45
2022-12-31T17:00:38.992Z,51.57
2022-12-31T17:06:02.227Z,51.62
2022-12-31T17:11:04.357Z,51.57
2022-12-31T17:16:06.246Z,51.57
2022-12-31T17:21:09.529Z,51.69
2022-12-31T17:26:12.507Z,51.91
2022-12-31T17:31:35.098Z,51.75
2022-12-31T17:36:36.642Z,51.87
2022-12-31T17:41:38.269Z,51.97
2022-12-31T17:46:40.370Z,52.05
2022-12-31T17:51:47.355Z,52.03
2022-12-31T17:56:50.054Z,52.04
2022-12-31T18:01:51.709Z,52.23
2022-12-31T18:06:53.613Z,52.15
2022-12-31T18:11:59.703Z,52.29
2022-12-31T18:17:02.962Z,52.32
2022-12-31T18:22:04.500Z,52.32
2022-12-31T18:27:15.348Z,52.21
2022-12-31T18:32:22.984Z,52.29
2022-12-31T18:37:25.047Z,52.48
2022-12-31T18:42:28.345Z,52.29
2022-12-31T18:47:35.848Z,52.38
2022-12-31T18:52:39.147Z,52.40
2022-12-31T18:57:40.693Z,52.60
2022-12-31T19:02:42.287Z,52.41
2022-12-31T19:07:43.901Z,52.58
2022-12-31T19:12:45.826Z,52.89
2022-12-31T19:17:47.387Z,52.82
2022-12-31T19:22:49.001Z,52.69
2022-12-31T19:27:51.362Z,52.80
2022-12-31T19:32:53.647Z,52.81
2022-12-31T19:37:55.815Z,52.75
2022-12-31T19:42:57.669Z,52.90
2022-12-31T19:47:59.236Z,52.36
2022-12-31T19:53:00.801Z,52.78
2022-12-31T19:58:02.461Z,52.72
2022-12-31T20:03:04.232Z,52.93
2022-12-31T20:08:05.925Z,52.85
2022-12-31T20:13:07.487Z,53.04
2022-12-31T20:18:09.040Z,53.05
2022-12-31T20:23:10.560Z,53.21
2022-12-31T20:28:12.133Z,53.34
2022-12-31T20:33:18.903Z,53.15
2022-12-31T20:38:20.819Z,53.27
2022-12-31T20:43:22.453Z,53.29
2022-12-31T20:48:24.085Z,53.46
2022-12-31T20:53:25.729Z,53.19
2022-12-31T20:58:27.357Z,53.41
2022-12-31T21:08:51.054Z,53.32
2022-12-31T21:13:53.085Z,53.12
2022-12-31T21:18:54.850Z,53.41
2022-12-31T21:23:56.581Z,53.17
2022-12-31T21:28:58.526Z,53.63
2022-12-31T21:34:00.120Z,53.35
2022-12-31T21:39:01.695Z,53.42
2022-12-31T21:44:03.402Z,53.21
2022-12-31T21:49:05.043Z,53.33
2022-12-31T21:54:06.636Z,53.19
2022-12-31T21:59:26.923Z,53.21
2022-12-31T22:05:01.006Z,53.36
2022-12-31T22:09:50.307Z,53.32
2022-12-31T22:15:15.824Z,53.17
2022-12-31T22:20:29.112Z,53.42
2022-12-31T22:25:35.997Z,53.32
2022-12-31T22:30:37.598Z,53.35
2022-12-31T22:35:39.144Z,53.21
2022-12-31T22:40:40.736Z,52.94
2022-12-31T22:45:42.277Z,53.15
2022-12-31T22:50:43.790Z,53.26
2022-12-31T22:55:45.336Z,53.18
2022-12-31T23:00:47.059Z,53.24
2022-12-31T23:05:51.808Z,53.43
2022-12-31T23:11:00.450Z,53.21
2022-12-31T23:16:20.940Z,53.30
2022-12-31T23:21:41.192Z,53.39
2022-12-31T23:26:44.158Z,53.77
2022-12-31T23:31:45.672Z,53.15
2022-12-31T23:36:47.274Z,53.09
2022-12-31T23:41:48.757Z,52.80
2022-12-31T23:46:50.689Z,52.95
2022-12-31T23:51:52.251Z,52.77
2022-12-31T23:56:53.772Z,53.03
